Terminal Aerodrome Forecast
Issued by NWS

Home | Current Version | Previous Version | Text Only | Print | Product List | Glossary On
Versions: 1 2 3 4 5 6 7 8 9 10 11 12 13 14 15 16 17 18
779
FTUS43 KMQT 241120
TAFCMX
TAF
KCMX 241120Z 2412/2512 10010KT P6SM BKN070
     FM241400 10014G21KT P6SM BKN090
     FM250100 12010KT P6SM BKN110
     FM250300 14008KT P6SM BKN110 WS020/20035KT
     FM250500 15008KT P6SM VCSH BKN090
     FM250600 16008KT P6SM OVC080
     FM250800 15008KT P6SM OVC080 WS020/18040KT=

USA.gov is the U.S. government's official web portal to all federal, state and local government web resources and services.